sensor_id;sensor_type;location;lat;lon;timestamp;pressure;altitude;pressure_sealevel;temperature;humidity
68873;BME280;55907;50.806;12.882;2023-02-03T00:01:37;979.9;;;2.2;92.2
68873;BME280;55907;50.806;12.882;2023-02-03T00:04:39;979.8;;;2.2;92.3
68873;BME280;55907;50.806;12.882;2023-02-03T00:07:40;979.8;;;2.2;92.4
68873;BME280;55907;50.806;12.882;2023-02-03T00:10:42;979.7;;;2.1;92.6
68873;BME280;55907;50.806;12.882;2023-02-03T00:13:44;979.7;;;2.1;92.7
68873;BME280;55907;50.806;12.882;2023-02-03T00:16:45;979.7;;;2.1;92.9
68873;BME280;55907;50.806;12.882;2023-02-03T00:19:47;979.7;;;2.0;93.0
68873;BME280;55907;50.806;12.882;2023-02-03T00:22:48;979.7;;;2.1;93.0
68873;BME280;55907;50.806;12.882;2023-02-03T00:25:50;979.6;;;2.0;93.0
68873;BME280;55907;50.806;12.882;2023-02-03T00:28:51;979.5;;;2.0;93.4
68873;BME280;55907;50.806;12.882;2023-02-03T00:31:53;979.4;;;2.0;93.2
68873;BME280;55907;50.806;12.882;2023-02-03T00:34:55;979.4;;;2.1;92.7
68873;BME280;55907;50.806;12.882;2023-02-03T00:37:57;979.4;;;2.1;92.7
68873;BME280;55907;50.806;12.882;2023-02-03T00:40:58;979.3;;;2.0;92.7
68873;BME280;55907;50.806;12.882;2023-02-03T00:43:59;979.2;;;2.0;92.9
68873;BME280;55907;50.806;12.882;2023-02-03T00:47:01;979.2;;;2.0;93.0
68873;BME280;55907;50.806;12.882;2023-02-03T00:50:03;979.2;;;1.9;93.2
68873;BME280;55907;50.806;12.882;2023-02-03T00:53:04;979.1;;;1.9;93.3
68873;BME280;55907;50.806;12.882;2023-02-03T00:56:06;979.1;;;1.9;93.7
68873;BME280;55907;50.806;12.882;2023-02-03T00:59:07;979.0;;;1.9;94.3
68873;BME280;55907;50.806;12.882;2023-02-03T01:02:09;979.0;;;1.9;94.7
68873;BME280;55907;50.806;12.882;2023-02-03T01:05:11;979.0;;;1.9;94.9
68873;BME280;55907;50.806;12.882;2023-02-03T01:08:12;979.0;;;2.0;94.9
68873;BME280;55907;50.806;12.882;2023-02-03T01:11:15;979.0;;;2.0;95.1
68873;BME280;55907;50.806;12.882;2023-02-03T01:14:15;978.7;;;2.0;95.2
68873;BME280;55907;50.806;12.882;2023-02-03T01:17:17;978.6;;;2.1;95.8
68873;BME280;55907;50.806;12.882;2023-02-03T01:20:18;978.4;;;2.2;95.7
68873;BME280;55907;50.806;12.882;2023-02-03T01:23:20;978.4;;;2.2;96.0
68873;BME280;55907;50.806;12.882;2023-02-03T01:26:23;978.3;;;2.3;96.1
68873;BME280;55907;50.806;12.882;2023-02-03T01:29:23;978.3;;;2.4;96.2
68873;BME280;55907;50.806;12.882;2023-02-03T01:32:26;978.1;;;2.5;96.3
68873;BME280;55907;50.806;12.882;2023-02-03T01:35:26;978.1;;;2.5;96.2
68873;BME280;55907;50.806;12.882;2023-02-03T01:38:28;978.1;;;2.5;97.1
68873;BME280;55907;50.806;12.882;2023-02-03T01:41:33;978.1;;;2.6;97.6
68873;BME280;55907;50.806;12.882;2023-02-03T01:44:38;978.1;;;2.7;97.8
68873;BME280;55907;50.806;12.882;2023-02-03T01:47:34;978.1;;;2.8;97.8
68873;BME280;55907;50.806;12.882;2023-02-03T01:50:35;978.1;;;2.8;97.9
68873;BME280;55907;50.806;12.882;2023-02-03T01:53:36;978.0;;;2.9;98.2
68873;BME280;55907;50.806;12.882;2023-02-03T01:56:39;978.0;;;2.9;98.9
68873;BME280;55907;50.806;12.882;2023-02-03T01:59:39;978.0;;;2.9;99.2
68873;BME280;55907;50.806;12.882;2023-02-03T02:02:41;978.0;;;3.0;99.1
68873;BME280;55907;50.806;12.882;2023-02-03T02:05:46;977.7;;;3.0;99.1
68873;BME280;55907;50.806;12.882;2023-02-03T02:08:48;977.7;;;3.1;99.3
68873;BME280;55907;50.806;12.882;2023-02-03T02:11:45;977.5;;;3.2;99.4
68873;BME280;55907;50.806;12.882;2023-02-03T02:17:56;977.9;;;3.4;99.9
68873;BME280;55907;50.806;12.882;2023-02-03T02:26:56;977.8;;;3.5;99.6
68873;BME280;55907;50.806;12.882;2023-02-03T02:30:05;977.7;;;3.6;99.7
68873;BME280;55907;50.806;12.882;2023-02-03T02:33:03;977.7;;;3.7;99.5
68873;BME280;55907;50.806;12.882;2023-02-03T02:36:06;977.6;;;3.7;99.7
68873;BME280;55907;50.806;12.882;2023-02-03T02:39:08;977.6;;;3.7;99.4
68873;BME280;55907;50.806;12.882;2023-02-03T02:42:06;977.5;;;3.8;99.0
68873;BME280;55907;50.806;12.882;2023-02-03T02:48:07;977.5;;;3.9;99.0
68873;BME280;55907;50.806;12.882;2023-02-03T02:51:06;977.6;;;3.9;98.9
68873;BME280;55907;50.806;12.882;2023-02-03T02:54:10;977.5;;;3.9;98.9
68873;BME280;55907;50.806;12.882;2023-02-03T02:57:10;977.4;;;4.0;99.0
68873;BME280;55907;50.806;12.882;2023-02-03T03:00:11;977.4;;;4.0;99.0
68873;BME280;55907;50.806;12.882;2023-02-03T03:03:12;977.4;;;4.0;99.0
68873;BME280;55907;50.806;12.882;2023-02-03T03:06:18;977.4;;;4.1;99.0
68873;BME280;55907;50.806;12.882;2023-02-03T03:09:17;977.3;;;4.1;98.9
68873;BME280;55907;50.806;12.882;2023-02-03T03:12:20;977.3;;;4.1;99.0
68873;BME280;55907;50.806;12.882;2023-02-03T03:15:21;977.3;;;4.2;98.8
68873;BME280;55907;50.806;12.882;2023-02-03T03:18:22;977.3;;;4.2;98.7
68873;BME280;55907;50.806;12.882;2023-02-03T03:21:23;977.4;;;4.2;98.8
68873;BME280;55907;50.806;12.882;2023-02-03T03:24:26;977.3;;;4.2;99.4
68873;BME280;55907;50.806;12.882;2023-02-03T03:27:28;977.3;;;4.2;99.7
68873;BME280;55907;50.806;12.882;2023-02-03T03:30:28;977.4;;;4.2;99.7
68873;BME280;55907;50.806;12.882;2023-02-03T03:36:31;977.3;;;4.2;99.5
68873;BME280;55907;50.806;12.882;2023-02-03T03:39:35;977.3;;;4.2;99.3
68873;BME280;55907;50.806;12.882;2023-02-03T03:42:35;977.3;;;4.3;99.1
68873;BME280;55907;50.806;12.882;2023-02-03T03:48:38;977.2;;;4.2;98.8
68873;BME280;55907;50.806;12.882;2023-02-03T03:51:40;977.3;;;4.3;98.7
68873;BME280;55907;50.806;12.882;2023-02-03T03:54:40;977.2;;;4.4;98.3
68873;BME280;55907;50.806;12.882;2023-02-03T03:57:42;977.2;;;4.4;98.1
68873;BME280;55907;50.806;12.882;2023-02-03T04:00:42;977.2;;;4.4;98.2
68873;BME280;55907;50.806;12.882;2023-02-03T04:03:45;977.1;;;4.4;98.3
68873;BME280;55907;50.806;12.882;2023-02-03T04:06:44;977.0;;;4.4;98.4
68873;BME280;55907;50.806;12.882;2023-02-03T04:09:45;976.9;;;4.5;98.6
68873;BME280;55907;50.806;12.882;2023-02-03T04:12:47;976.8;;;4.6;98.2
68873;BME280;55907;50.806;12.882;2023-02-03T04:15:49;976.7;;;4.7;98.0
68873;BME280;55907;50.806;12.882;2023-02-03T04:18:50;976.6;;;4.7;97.8
68873;BME280;55907;50.806;12.882;2023-02-03T04:21:52;976.6;;;4.7;97.5
68873;BME280;55907;50.806;12.882;2023-02-03T04:24:53;976.4;;;4.7;97.5
68873;BME280;55907;50.806;12.882;2023-02-03T04:27:54;976.4;;;4.8;96.9
68873;BME280;55907;50.806;12.882;2023-02-03T04:30:59;976.2;;;4.8;96.8
68873;BME280;55907;50.806;12.882;2023-02-03T04:33:58;976.3;;;4.8;96.7
68873;BME280;55907;50.806;12.882;2023-02-03T04:36:59;976.3;;;4.9;96.5
68873;BME280;55907;50.806;12.882;2023-02-03T04:40:01;976.3;;;5.0;96.0
68873;BME280;55907;50.806;12.882;2023-02-03T04:43:05;976.5;;;5.0;96.1
68873;BME280;55907;50.806;12.882;2023-02-03T04:46:04;976.4;;;5.0;96.0
68873;BME280;55907;50.806;12.882;2023-02-03T04:49:05;976.5;;;5.0;96.2
68873;BME280;55907;50.806;12.882;2023-02-03T04:52:07;976.7;;;5.1;95.9
68873;BME280;55907;50.806;12.882;2023-02-03T04:55:08;976.7;;;5.1;95.8
68873;BME280;55907;50.806;12.882;2023-02-03T04:58:10;976.6;;;5.1;95.8
68873;BME280;55907;50.806;12.882;2023-02-03T05:01:12;976.5;;;5.1;95.6
68873;BME280;55907;50.806;12.882;2023-02-03T05:04:13;976.5;;;5.1;95.4
68873;BME280;55907;50.806;12.882;2023-02-03T05:07:14;976.4;;;5.1;95.4
68873;BME280;55907;50.806;12.882;2023-02-03T05:10:16;976.4;;;5.1;95.1
68873;BME280;55907;50.806;12.882;2023-02-03T05:13:18;976.6;;;5.1;95.3
68873;BME280;55907;50.806;12.882;2023-02-03T05:19:21;976.3;;;5.1;95.8
68873;BME280;55907;50.806;12.882;2023-02-03T05:22:22;976.3;;;5.1;96.0
68873;BME280;55907;50.806;12.882;2023-02-03T05:25:24;976.3;;;5.1;95.9
68873;BME280;55907;50.806;12.882;2023-02-03T05:28:25;976.1;;;5.1;95.7
68873;BME280;55907;50.806;12.882;2023-02-03T05:31:27;976.2;;;5.1;95.7
68873;BME280;55907;50.806;12.882;2023-02-03T05:34:28;976.1;;;5.1;95.7
68873;BME280;55907;50.806;12.882;2023-02-03T05:37:30;976.0;;;5.1;95.9
68873;BME280;55907;50.806;12.882;2023-02-03T05:40:32;975.8;;;5.1;96.1
68873;BME280;55907;50.806;12.882;2023-02-03T05:43:34;975.8;;;5.2;96.1
68873;BME280;55907;50.806;12.882;2023-02-03T05:46:34;976.0;;;5.1;95.9
68873;BME280;55907;50.806;12.882;2023-02-03T05:49:36;975.9;;;5.1;95.7
68873;BME280;55907;50.806;12.882;2023-02-03T05:52:38;976.0;;;5.1;95.4
68873;BME280;55907;50.806;12.882;2023-02-03T05:55:39;976.1;;;5.2;95.4
68873;BME280;55907;50.806;12.882;2023-02-03T05:58:41;976.0;;;5.2;95.2
68873;BME280;55907;50.806;12.882;2023-02-03T06:01:42;976.0;;;5.1;95.2
68873;BME280;55907;50.806;12.882;2023-02-03T06:04:44;976.0;;;5.1;94.9
68873;BME280;55907;50.806;12.882;2023-02-03T06:07:46;976.1;;;5.1;95.0
68873;BME280;55907;50.806;12.882;2023-02-03T06:10:47;976.1;;;5.1;94.9
68873;BME280;55907;50.806;12.882;2023-02-03T06:13:49;976.1;;;5.2;94.7
68873;BME280;55907;50.806;12.882;2023-02-03T06:16:50;976.2;;;5.3;94.2
68873;BME280;55907;50.806;12.882;2023-02-03T06:19:51;976.1;;;5.4;93.4
68873;BME280;55907;50.806;12.882;2023-02-03T06:20:34;unavailable;;;unavailable;unavailable
68873;BME280;55907;50.806;12.882;2023-02-03T06:20:35;976.0;;;5.5;92.9
68873;BME280;55907;50.806;12.882;2023-02-03T06:22:53;975.9;;;5.5;92.5
68873;BME280;55907;50.806;12.882;2023-02-03T06:25:55;975.8;;;5.6;92.0
68873;BME280;55907;50.806;12.882;2023-02-03T06:28:56;975.7;;;5.7;91.6
68873;BME280;55907;50.806;12.882;2023-02-03T06:31:57;975.7;;;5.7;90.9
68873;BME280;55907;50.806;12.882;2023-02-03T06:34:59;975.7;;;5.7;91.0
68873;BME280;55907;50.806;12.882;2023-02-03T06:38:00;975.6;;;5.8;90.8
68873;BME280;55907;50.806;12.882;2023-02-03T06:41:02;975.6;;;5.7;90.7
68873;BME280;55907;50.806;12.882;2023-02-03T06:44:04;975.5;;;5.6;91.2
68873;BME280;55907;50.806;12.882;2023-02-03T06:47:05;975.5;;;5.6;91.1
68873;BME280;55907;50.806;12.882;2023-02-03T06:50:08;975.5;;;5.5;91.4
68873;BME280;55907;50.806;12.882;2023-02-03T06:53:08;975.4;;;5.5;91.6
68873;BME280;55907;50.806;12.882;2023-02-03T06:56:10;975.4;;;5.5;91.5
68873;BME280;55907;50.806;12.882;2023-02-03T06:59:11;975.5;;;5.4;91.6
68873;BME280;55907;50.806;12.882;2023-02-03T07:02:13;975.4;;;5.4;91.2
68873;BME280;55907;50.806;12.882;2023-02-03T07:05:14;975.4;;;5.4;91.3
68873;BME280;55907;50.806;12.882;2023-02-03T07:08:16;975.4;;;5.4;91.4
68873;BME280;55907;50.806;12.882;2023-02-03T07:11:17;975.4;;;5.4;91.4
68873;BME280;55907;50.806;12.882;2023-02-03T07:14:19;975.3;;;5.4;91.3
68873;BME280;55907;50.806;12.882;2023-02-03T07:17:20;975.3;;;5.4;91.0
68873;BME280;55907;50.806;12.882;2023-02-03T07:20:24;975.3;;;5.4;91.0
68873;BME280;55907;50.806;12.882;2023-02-03T07:23:24;975.1;;;5.4;90.9
68873;BME280;55907;50.806;12.882;2023-02-03T07:26:25;975.1;;;5.5;90.9
68873;BME280;55907;50.806;12.882;2023-02-03T07:29:27;975.1;;;5.5;90.5
68873;BME280;55907;50.806;12.882;2023-02-03T07:32:28;975.0;;;5.5;90.1
68873;BME280;55907;50.806;12.882;2023-02-03T07:35:30;974.9;;;5.6;89.9
68873;BME280;55907;50.806;12.882;2023-02-03T07:38:32;975.0;;;5.6;90.0
68873;BME280;55907;50.806;12.882;2023-02-03T07:41:33;975.0;;;5.6;89.9
68873;BME280;55907;50.806;12.882;2023-02-03T07:44:34;974.9;;;5.6;90.3
68873;BME280;55907;50.806;12.882;2023-02-03T07:47:36;974.9;;;5.6;90.6
68873;BME280;55907;50.806;12.882;2023-02-03T07:50:38;974.8;;;5.6;90.3
68873;BME280;55907;50.806;12.882;2023-02-03T07:53:39;974.8;;;5.6;90.4
68873;BME280;55907;50.806;12.882;2023-02-03T07:56:41;974.8;;;5.6;90.7
68873;BME280;55907;50.806;12.882;2023-02-03T07:59:42;974.8;;;5.6;90.6
68873;BME280;55907;50.806;12.882;2023-02-03T08:02:43;974.9;;;5.6;90.3
68873;BME280;55907;50.806;12.882;2023-02-03T08:08:46;974.9;;;5.6;90.3
68873;BME280;55907;50.806;12.882;2023-02-03T08:11:48;974.7;;;5.6;90.9
68873;BME280;55907;50.806;12.882;2023-02-03T08:14:49;974.8;;;5.6;91.5
68873;BME280;55907;50.806;12.882;2023-02-03T08:20:52;974.7;;;5.6;92.0
68873;BME280;55907;50.806;12.882;2023-02-03T08:23:54;974.6;;;5.7;91.4
68873;BME280;55907;50.806;12.882;2023-02-03T08:26:56;974.6;;;5.6;91.6
68873;BME280;55907;50.806;12.882;2023-02-03T08:29:58;974.5;;;5.6;91.8
68873;BME280;55907;50.806;12.882;2023-02-03T08:32:59;974.6;;;5.7;91.6
68873;BME280;55907;50.806;12.882;2023-02-03T08:36:00;974.5;;;5.7;91.4
68873;BME280;55907;50.806;12.882;2023-02-03T08:39:02;974.5;;;5.7;91.0
68873;BME280;55907;50.806;12.882;2023-02-03T08:42:04;974.6;;;5.7;90.6
68873;BME280;55907;50.806;12.882;2023-02-03T08:45:06;974.5;;;5.7;90.3
68873;BME280;55907;50.806;12.882;2023-02-03T08:48:07;974.5;;;5.8;90.0
68873;BME280;55907;50.806;12.882;2023-02-03T08:54:09;974.4;;;5.9;89.2
68873;BME280;55907;50.806;12.882;2023-02-03T08:57:12;974.3;;;5.8;88.9
68873;BME280;55907;50.806;12.882;2023-02-03T09:00:14;974.2;;;5.9;88.7
68873;BME280;55907;50.806;12.882;2023-02-03T09:03:14;974.3;;;5.9;88.2
68873;BME280;55907;50.806;12.882;2023-02-03T09:06:16;974.2;;;6.0;88.1
68873;BME280;55907;50.806;12.882;2023-02-03T09:09:17;974.3;;;6.0;87.3
68873;BME280;55907;50.806;12.882;2023-02-03T09:12:19;974.2;;;6.0;86.8
68873;BME280;55907;50.806;12.882;2023-02-03T09:15:20;974.1;;;6.1;86.6
68873;BME280;55907;50.806;12.882;2023-02-03T09:18:22;974.1;;;6.1;86.3
68873;BME280;55907;50.806;12.882;2023-02-03T09:21:23;973.9;;;6.1;86.3
68873;BME280;55907;50.806;12.882;2023-02-03T09:24:25;973.8;;;6.1;85.8
68873;BME280;55907;50.806;12.882;2023-02-03T09:27:26;973.7;;;6.2;85.4
68873;BME280;55907;50.806;12.882;2023-02-03T09:30:28;973.8;;;6.2;85.5
68873;BME280;55907;50.806;12.882;2023-02-03T09:33:30;973.7;;;6.2;85.7
68873;BME280;55907;50.806;12.882;2023-02-03T09:36:31;973.6;;;6.2;87.6
68873;BME280;55907;50.806;12.882;2023-02-03T09:39:32;973.7;;;6.3;86.4
68873;BME280;55907;50.806;12.882;2023-02-03T09:42:42;973.4;;;6.4;85.5
68873;BME280;55907;50.806;12.882;2023-02-03T09:45:35;973.5;;;6.3;85.1
68873;BME280;55907;50.806;12.882;2023-02-03T09:48:40;973.5;;;6.4;84.8
68873;BME280;55907;50.806;12.882;2023-02-03T09:51:42;973.4;;;6.3;84.6
68873;BME280;55907;50.806;12.882;2023-02-03T09:54:43;973.4;;;6.4;84.5
68873;BME280;55907;50.806;12.882;2023-02-03T09:57:47;973.5;;;6.4;84.5
68873;BME280;55907;50.806;12.882;2023-02-03T10:00:46;973.5;;;6.4;84.3
68873;BME280;55907;50.806;12.882;2023-02-03T10:03:49;973.3;;;6.4;84.5
68873;BME280;55907;50.806;12.882;2023-02-03T10:06:47;973.4;;;6.4;84.7
68873;BME280;55907;50.806;12.882;2023-02-03T10:09:53;973.4;;;6.4;84.4
68873;BME280;55907;50.806;12.882;2023-02-03T10:12:59;973.4;;;6.4;84.4
68873;BME280;55907;50.806;12.882;2023-02-03T10:15:59;973.2;;;6.5;84.0
68873;BME280;55907;50.806;12.882;2023-02-03T10:18:54;973.3;;;6.6;84.2
68873;BME280;55907;50.806;12.882;2023-02-03T10:21:57;973.2;;;6.6;83.6
68873;BME280;55907;50.806;12.882;2023-02-03T10:28:00;973.1;;;6.7;83.5
68873;BME280;55907;50.806;12.882;2023-02-03T10:31:00;973.2;;;6.7;83.6
68873;BME280;55907;50.806;12.882;2023-02-03T10:40:03;973.1;;;6.6;89.6
68873;BME280;55907;50.806;12.882;2023-02-03T10:43:04;973.0;;;6.4;90.7
68873;BME280;55907;50.806;12.882;2023-02-03T10:46:06;972.9;;;6.2;91.6
68873;BME280;55907;50.806;12.882;2023-02-03T10:49:08;972.7;;;6.1;94.1
68873;BME280;55907;50.806;12.882;2023-02-03T10:52:27;972.7;;;5.9;95.8
68873;BME280;55907;50.806;12.882;2023-02-03T10:55:28;972.5;;;5.9;97.7
68873;BME280;55907;50.806;12.882;2023-02-03T10:58:15;972.5;;;5.9;97.7
68873;BME280;55907;50.806;12.882;2023-02-03T11:04:24;972.5;;;5.8;99.0
68873;BME280;55907;50.806;12.882;2023-02-03T11:07:23;972.3;;;5.7;99.9
68873;BME280;55907;50.806;12.882;2023-02-03T11:10:29;972.5;;;5.6;100.0
68873;BME280;55907;50.806;12.882;2023-02-03T11:13:22;972.5;;;5.7;100.0
68873;BME280;55907;50.806;12.882;2023-02-03T11:19:23;972.4;;;5.7;100.0
68873;BME280;55907;50.806;12.882;2023-02-03T11:22:26;972.5;;;5.7;100.0
68873;BME280;55907;50.806;12.882;2023-02-03T11:25:31;972.5;;;5.6;100.0
68873;BME280;55907;50.806;12.882;2023-02-03T11:28:27;972.4;;;5.6;100.0
68873;BME280;55907;50.806;12.882;2023-02-03T11:31:31;972.4;;;5.6;100.0
68873;BME280;55907;50.806;12.882;2023-02-03T11:34:33;972.4;;;5.7;100.0
68873;BME280;55907;50.806;12.882;2023-02-03T11:37:34;972.3;;;5.7;100.0
68873;BME280;55907;50.806;12.882;2023-02-03T11:40:34;972.5;;;5.7;100.0
68873;BME280;55907;50.806;12.882;2023-02-03T11:43:35;972.3;;;5.7;100.0
68873;BME280;55907;50.806;12.882;2023-02-03T11:46:37;972.3;;;5.6;100.0
68873;BME280;55907;50.806;12.882;2023-02-03T11:52:49;972.2;;;5.6;100.0
68873;BME280;55907;50.806;12.882;2023-02-03T11:55:51;972.2;;;5.6;100.0
68873;BME280;55907;50.806;12.882;2023-02-03T11:58:51;972.3;;;5.5;100.0
68873;BME280;55907;50.806;12.882;2023-02-03T12:01:53;972.1;;;5.4;100.0
68873;BME280;55907;50.806;12.882;2023-02-03T12:04:54;972.1;;;5.6;100.0
68873;BME280;55907;50.806;12.882;2023-02-03T12:06:35;unavailable;;;unavailable;unavailable
68873;BME280;55907;50.806;12.882;2023-02-03T12:10:12;972.0;;;5.6;100.0
68873;BME280;55907;50.806;12.882;2023-02-03T12:10:59;971.9;;;5.7;100.0
68873;BME280;55907;50.806;12.882;2023-02-03T12:14:02;971.9;;;5.7;100.0
68873;BME280;55907;50.806;12.882;2023-02-03T12:26:02;972.0;;;5.8;100.0
68873;BME280;55907;50.806;12.882;2023-02-03T12:29:01;972.0;;;5.8;100.0
68873;BME280;55907;50.806;12.882;2023-02-03T12:32:05;971.9;;;5.8;100.0
68873;BME280;55907;50.806;12.882;2023-02-03T12:35:05;972.0;;;5.9;100.0
68873;BME280;55907;50.806;12.882;2023-02-03T12:38:08;971.9;;;6.0;100.0
68873;BME280;55907;50.806;12.882;2023-02-03T12:41:09;972.0;;;5.9;100.0
68873;BME280;55907;50.806;12.882;2023-02-03T12:44:12;972.0;;;5.9;100.0
68873;BME280;55907;50.806;12.882;2023-02-03T12:47:12;971.9;;;6.0;100.0
68873;BME280;55907;50.806;12.882;2023-02-03T12:50:13;971.8;;;6.1;100.0
68873;BME280;55907;50.806;12.882;2023-02-03T12:53:13;971.8;;;6.1;100.0
68873;BME280;55907;50.806;12.882;2023-02-03T12:56:14;971.7;;;6.0;100.0
68873;BME280;55907;50.806;12.882;2023-02-03T12:59:18;971.5;;;6.1;100.0
68873;BME280;55907;50.806;12.882;2023-02-03T13:02:20;971.4;;;6.1;100.0
68873;BME280;55907;50.806;12.882;2023-02-03T13:05:19;971.5;;;6.1;100.0
68873;BME280;55907;50.806;12.882;2023-02-03T13:08:24;971.5;;;6.1;100.0
68873;BME280;55907;50.806;12.882;2023-02-03T13:11:22;971.4;;;6.1;100.0
68873;BME280;55907;50.806;12.882;2023-02-03T13:14:23;971.3;;;6.1;100.0
68873;BME280;55907;50.806;12.882;2023-02-03T13:17:25;971.3;;;6.1;100.0
68873;BME280;55907;50.806;12.882;2023-02-03T13:20:34;971.5;;;6.1;100.0
68873;BME280;55907;50.806;12.882;2023-02-03T13:26:40;971.4;;;6.2;100.0
68873;BME280;55907;50.806;12.882;2023-02-03T13:29:39;971.5;;;6.2;100.0
68873;BME280;55907;50.806;12.882;2023-02-03T13:35:38;971.9;;;6.3;100.0
68873;BME280;55907;50.806;12.882;2023-02-03T13:38:38;971.8;;;6.3;100.0
68873;BME280;55907;50.806;12.882;2023-02-03T13:41:40;971.9;;;6.4;100.0
68873;BME280;55907;50.806;12.882;2023-02-03T13:44:36;971.9;;;6.5;100.0
68873;BME280;55907;50.806;12.882;2023-02-03T13:47:38;972.0;;;6.5;100.0
68873;BME280;55907;50.806;12.882;2023-02-03T13:50:39;972.0;;;6.6;100.0
68873;BME280;55907;50.806;12.882;2023-02-03T13:53:42;971.9;;;6.6;100.0
68873;BME280;55907;50.806;12.882;2023-02-03T13:56:51;972.0;;;6.7;99.7
68873;BME280;55907;50.806;12.882;2023-02-03T13:59:44;971.9;;;6.8;98.5
68873;BME280;55907;50.806;12.882;2023-02-03T14:02:51;971.9;;;6.8;95.9
68873;BME280;55907;50.806;12.882;2023-02-03T14:05:47;971.9;;;6.8;95.8
68873;BME280;55907;50.806;12.882;2023-02-03T14:08:48;971.9;;;6.7;95.7
68873;BME280;55907;50.806;12.882;2023-02-03T14:11:50;971.9;;;6.8;96.0
68873;BME280;55907;50.806;12.882;2023-02-03T14:15:02;972.1;;;6.8;95.5
68873;BME280;55907;50.806;12.882;2023-02-03T14:17:56;971.9;;;6.8;94.5
68873;BME280;55907;50.806;12.882;2023-02-03T14:21:07;972.0;;;6.8;93.7
68873;BME280;55907;50.806;12.882;2023-02-03T14:23:58;972.0;;;6.8;93.5
68873;BME280;55907;50.806;12.882;2023-02-03T14:26:58;972.0;;;6.7;92.5
68873;BME280;55907;50.806;12.882;2023-02-03T14:30:02;972.0;;;6.7;93.1
68873;BME280;55907;50.806;12.882;2023-02-03T14:33:01;972.1;;;6.8;92.5
68873;BME280;55907;50.806;12.882;2023-02-03T14:36:02;972.1;;;6.8;91.9
68873;BME280;55907;50.806;12.882;2023-02-03T14:42:10;972.3;;;6.9;91.3
68873;BME280;55907;50.806;12.882;2023-02-03T14:45:15;972.3;;;6.8;91.2
68873;BME280;55907;50.806;12.882;2023-02-03T14:48:16;972.3;;;6.8;90.4
68873;BME280;55907;50.806;12.882;2023-02-03T14:51:15;972.5;;;6.8;88.2
68873;BME280;55907;50.806;12.882;2023-02-03T14:54:20;972.3;;;6.8;86.9
68873;BME280;55907;50.806;12.882;2023-02-03T14:57:20;972.4;;;6.9;84.2
68873;BME280;55907;50.806;12.882;2023-02-03T15:00:25;972.3;;;6.9;82.7
68873;BME280;55907;50.806;12.882;2023-02-03T15:03:17;972.5;;;6.9;82.1
68873;BME280;55907;50.806;12.882;2023-02-03T15:09:29;972.5;;;6.9;82.5
68873;BME280;55907;50.806;12.882;2023-02-03T15:12:23;972.6;;;6.9;82.2
68873;BME280;55907;50.806;12.882;2023-02-03T15:15:23;972.6;;;6.9;82.0
68873;BME280;55907;50.806;12.882;2023-02-03T15:18:28;972.9;;;6.8;81.8
68873;BME280;55907;50.806;12.882;2023-02-03T15:21:24;972.8;;;6.7;81.5
68873;BME280;55907;50.806;12.882;2023-02-03T15:24:34;972.9;;;6.6;81.5
68873;BME280;55907;50.806;12.882;2023-02-03T15:27:29;972.9;;;6.5;80.8
68873;BME280;55907;50.806;12.882;2023-02-03T15:30:29;972.9;;;6.4;81.2
68873;BME280;55907;50.806;12.882;2023-02-03T15:33:32;973.1;;;6.4;82.0
68873;BME280;55907;50.806;12.882;2023-02-03T15:36:35;973.1;;;6.4;81.1
68873;BME280;55907;50.806;12.882;2023-02-03T15:39:41;973.1;;;6.3;79.2
68873;BME280;55907;50.806;12.882;2023-02-03T15:42:37;973.0;;;6.4;77.9
68873;BME280;55907;50.806;12.882;2023-02-03T15:45:38;973.1;;;6.3;77.9
68873;BME280;55907;50.806;12.882;2023-02-03T15:48:41;973.3;;;6.4;76.7
68873;BME280;55907;50.806;12.882;2023-02-03T15:51:42;973.2;;;6.3;76.8
68873;BME280;55907;50.806;12.882;2023-02-03T15:54:43;973.3;;;6.2;76.2
68873;BME280;55907;50.806;12.882;2023-02-03T15:57:43;973.2;;;6.2;76.5
68873;BME280;55907;50.806;12.882;2023-02-03T16:00:47;973.3;;;6.2;77.4
68873;BME280;55907;50.806;12.882;2023-02-03T16:03:48;973.3;;;6.2;77.0
68873;BME280;55907;50.806;12.882;2023-02-03T16:06:49;973.4;;;6.3;77.1
68873;BME280;55907;50.806;12.882;2023-02-03T16:09:51;973.5;;;6.2;77.5
68873;BME280;55907;50.806;12.882;2023-02-03T16:12:50;973.6;;;6.2;78.4
68873;BME280;55907;50.806;12.882;2023-02-03T16:16:02;973.7;;;6.3;78.0
68873;BME280;55907;50.806;12.882;2023-02-03T16:18:55;973.7;;;6.3;77.5
68873;BME280;55907;50.806;12.882;2023-02-03T16:21:56;973.6;;;6.3;77.5
68873;BME280;55907;50.806;12.882;2023-02-03T16:24:56;973.7;;;6.2;76.6
68873;BME280;55907;50.806;12.882;2023-02-03T16:27:59;973.6;;;6.3;76.4
68873;BME280;55907;50.806;12.882;2023-02-03T16:31:01;973.7;;;6.3;76.0
68873;BME280;55907;50.806;12.882;2023-02-03T16:34:04;973.6;;;6.3;76.2
68873;BME280;55907;50.806;12.882;2023-02-03T16:37:10;973.6;;;6.2;75.9
68873;BME280;55907;50.806;12.882;2023-02-03T16:40:04;973.6;;;6.1;76.2
68873;BME280;55907;50.806;12.882;2023-02-03T16:43:10;973.6;;;6.1;77.0
68873;BME280;55907;50.806;12.882;2023-02-03T16:46:10;973.6;;;6.1;76.7
68873;BME280;55907;50.806;12.882;2023-02-03T16:49:08;973.6;;;6.1;76.7
68873;BME280;55907;50.806;12.882;2023-02-03T16:52:10;973.6;;;6.2;76.8
68873;BME280;55907;50.806;12.882;2023-02-03T16:55:11;973.6;;;6.2;76.2
68873;BME280;55907;50.806;12.882;2023-02-03T16:58:13;973.7;;;6.2;75.9
68873;BME280;55907;50.806;12.882;2023-02-03T17:01:14;973.8;;;6.2;75.6
68873;BME280;55907;50.806;12.882;2023-02-03T17:04:16;973.8;;;6.2;75.5
68873;BME280;55907;50.806;12.882;2023-02-03T17:07:17;973.7;;;6.2;75.2
68873;BME280;55907;50.806;12.882;2023-02-03T17:10:19;973.9;;;6.2;75.3
68873;BME280;55907;50.806;12.882;2023-02-03T17:13:22;973.8;;;6.2;75.1
68873;BME280;55907;50.806;12.882;2023-02-03T17:16:24;973.7;;;6.1;76.0
68873;BME280;55907;50.806;12.882;2023-02-03T17:19:23;973.8;;;6.1;75.4
68873;BME280;55907;50.806;12.882;2023-02-03T17:22:26;973.8;;;6.2;75.4
68873;BME280;55907;50.806;12.882;2023-02-03T17:25:26;973.9;;;6.1;75.1
68873;BME280;55907;50.806;12.882;2023-02-03T17:28:28;973.8;;;6.1;74.7
68873;BME280;55907;50.806;12.882;2023-02-03T17:31:30;974.0;;;6.1;74.1
68873;BME280;55907;50.806;12.882;2023-02-03T17:34:32;974.1;;;6.1;73.4
68873;BME280;55907;50.806;12.882;2023-02-03T17:37:33;974.1;;;6.1;73.9
68873;BME280;55907;50.806;12.882;2023-02-03T17:40:38;974.2;;;6.1;74.2
68873;BME280;55907;50.806;12.882;2023-02-03T17:43:36;974.2;;;6.1;74.4
68873;BME280;55907;50.806;12.882;2023-02-03T17:46:37;974.3;;;6.1;75.1
68873;BME280;55907;50.806;12.882;2023-02-03T17:49:39;974.4;;;6.1;75.8
68873;BME280;55907;50.806;12.882;2023-02-03T17:52:40;974.4;;;6.1;76.4
68873;BME280;55907;50.806;12.882;2023-02-03T17:55:42;974.4;;;6.0;76.2
68873;BME280;55907;50.806;12.882;2023-02-03T17:58:44;974.6;;;6.0;76.6
68873;BME280;55907;50.806;12.882;2023-02-03T18:01:45;974.7;;;6.0;76.4
68873;BME280;55907;50.806;12.882;2023-02-03T18:04:46;974.8;;;6.1;76.9
68873;BME280;55907;50.806;12.882;2023-02-03T18:07:48;974.9;;;6.1;76.8